Metar z pełnej godziny Komunikat METAR ze strony awiacja.imgw.pl Metar G00 EPPO METAR EPPO 241900Z 19003KT CAVOK 15/09 Q1012 =